Des Lacs, ND

7:31 AM CDT on April 26, 2015 (GMT -0500)
Edgeview Estates | | Change Station
CLOSE
Current Station
Personal Weather Station
Location: Minot, ND
Elevation: 1752 ft
Nearby Weather Stations

Elev 1752 ft 48.21 °N, 101.33 °W | Updated 6 seconds ago

Overcast
Overcast
46.6 °F
Feels Like 44 °F
N
5.0
Wind Variable Wind from SE
Gusts 6.0 mph

Today
High -- | Low -- °F
--% Chance of Precip.
Yesterday
High -- | Low -- °F
Precip. -- in
6:36 AM 8:52 PM
First Quarter, 55% visible
Pressure 29.98 in
Visibility 2.5 miles
Clouds Overcast 800 ft
Windchill 44 °F
Dew Point 43 °F
Humidity 87%
Rainfall 0.05 in
Snow Depth Not available.
UV 0 out of 12
Pollen 7.10 out of 12
Air Quality Not available.
Flu Activity Regional
SPECI KMOT 261224Z 16007KT 2 1/2SM BR OVC008 08/07 A2998 RMK AO2 T00830067

More Conditions Fewer Conditions

Pressure 29.98 in
Visibility 2.5 miles
Clouds Overcast 800 ft
Windchill 44 °F
Dew Point 43 °F
Humidity 87%
Rainfall 0.05 in
Snow Depth Not available.
UV 0 out of 12
Pollen 7.10 out of 12
Air Quality Not available.
Flu Activity Regional
SPECI KMOT 261224Z 16007KT 2 1/2SM BR OVC008 08/07 A2998 RMK AO2 T00830067

More Conditions Fewer Conditions

The full scope of the disaster following a powerful 7.8-magnitude earthquake in Nepal may not come into view for days, but global charities are already sending emergency aid. Click to see how you can help.

10-Day Weather Forecast

Almanac

Astronomy

Apr. 26, 2015 Rise Set
Actual Time
Civil Twilight
Nautical Twilight
Astronomical Twilight
Moon
Length of Visible Light
Length of Day
Tomorrow will be .
, % of the Moon is Illuminated

Today's Extremes

State Highs State Lows

Community

WunderPhotos

Upload Photos

1,816,972 photos uploaded!

WunderBlogs® & News

Nearby

Air Quality

  Air Quality AQ Index Pollutant
Not available.

Snow Depth

Station Depth Elevation

Earthquake Activity

City Distance Mag. Time & Date
Minimum magnitude displayed is 2.5.

Coastal Water Temperatures

Place Temperature

Stations

Nearby Weather Stations

Station Location Temp. Windchill Dew Point Humidity Wind Precip. Elev Updated Type